Detall de PIREP

Printer-friendly versionPDF version

[2014/06/07 14:40:00]
Flight IATA:CT1063
Pilot Number:012
Company ICAO:CAT
Aircraft Type:B763/F
PAX:263
Departing Airport: LTBA
Destination Airport: LGAV
Alternate Airport:LGSY
Online: VATSIM
Route:BIG UN604 KEPIR
Flight Level:F330
No Slew and time accel
No pause
Crash detect
Detect pilot in Cockpit between each 30 and 45 minutes
14:40 Zero fuel Weight: 249782 Lbs, Fuel Weight: 30094 Lbs
14:40 VATSIM:LTBA 071420Z 35009KT 9999 SCT025 BKN080 23/17 Q1010 NOSIG
14:40 VATSIM:LGAV 071420Z 10005KT 040V140 9999 SCT030 SCT090 29/11 Q1012 NOSIG
14:41 ALMOGÀVERS ROUTE
15:00 Parking Brakes off
15:04 Take-off
15:04 Take off Weight: 277993 Lbs
15:04 Wind: 345º @ 009 Knots Heading: 358º
15:04 POS N40º 58´ 50´´ E028º 48´ 32´´
15:04 Gear Up: 168 Knots
15:04 Flaps:2 at 168 Knots
15:05 Flaps:1 at 201 Knots
15:05 Flaps:0 at 222 Knots
15:14 TOC
15:14 Fuel Weight: 23364 Lb
15:19 Wind:022º@012 Knots Heading: 216º Ground Speed: 490 Knots Altitude 32900 ft
15:34 Wind:352º@030 Knots Heading: 239º Ground Speed: 496 Knots Altitude 32896 ft
15:37 TOD
15:37 Fuel Weight: 19648 Lb
15:48 Flaps:1 at 243 Knots
15:49 Wind:013º@004 Knots Heading: 272º Ground Speed: 283 Knots Altitude 9878 ft
15:54 Flaps:2 at 212 Knots
15:54 Flaps:3 at 193 Knots
15:55 Gear Down: 171 Knots
15:55 Flaps:4 at 169 Knots
15:55 Flaps:5 at 155 Knots
15:55 Flaps:6 at 153 Knots
15:59 TouchDown:Rate -279 ft/min Speed: 123 Knots
16:00 VATSIM:LGAV 071550Z 09004KT 9999 FEW030 28/10 Q1012 NOSIG
16:00 Land
16:00 Wind:356º@002 Knots
16:00 Heading: 035º
16:00 Flight Duration: 00:56
16:00 Landing Weight: 266970 Lbs
16:00 POS N37º 56´ 08´´ E023º 55´ 56´´
16:02 Parking brakes on
16:02 Block to Block Duration: 01:02
16:02 Final Fuel: 16710 Lbls
16:02 Spent Fuel: 13384 Lbls
16:02Flight Length: 371 NM
16:02 TOD Land Length: 119 NM

Exportar CSV

Powered by Drupal - Modified by Danger4k